Time;durP1;ratioP1;P1;durP2;ratioP2;P2;SDS_P1;SDS_P2;PMS_P1;PMS_P2;Temp;Humidity;BMP_temperature;BMP_pressure;BME280_temperature;BME280_humidity;BME280_pressure;Samples;Min_cycle;Max_cycle;Signal;HPM_P1;HPM_P2
2020/04/23 00:06:04;;;;;;;5.899999;4.9;;;;;;;9.61;46.30078;95215.45;;;;
2020/04/23 00:07:06;;;;;;;5.95;5;;;;;;;9.56;46.32813;95209.94;;;;
2020/04/23 00:08:06;;;;;;;5.95;5;;;;;;;9.56;46.32813;95209.94;;;;
2020/04/23 00:09:07;;;;;;;5.95;5;;;;;;;9.56;46.32813;95209.94;;;;
2020/04/23 00:10:07;;;;;;;5.849999;4.45;;;;;;;9.52;46.3877;95218.18;;;;
2020/04/23 00:11:08;;;;;;;5.849999;4.45;;;;;;;9.52;46.3877;95218.18;;;;
2020/04/23 00:12:09;;;;;;;5.849999;4.45;;;;;;;9.52;46.3877;95218.18;;;;
2020/04/23 00:13:09;;;;;;;5.9;4.95;;;;;;;9.47;46.50098;95208.62;;;;
2020/04/23 00:14:10;;;;;;;5.9;4.95;;;;;;;9.47;46.50098;95208.62;;;;
2020/04/23 00:15:10;;;;;;;6.100001;4.8;;;;;;;9.43;46.68066;95213.65;;;;
2020/04/23 00:16:11;;;;;;;6.100001;4.8;;;;;;;9.43;46.68066;95213.65;;;;
2020/04/23 00:17:11;;;;;;;6.100001;4.8;;;;;;;9.43;46.68066;95213.65;;;;
2020/04/23 00:18:11;;;;;;;6.900001;4.7;;;;;;;9.38;46.79297;95214.47;;;;
2020/04/23 00:19:12;;;;;;;6.900001;4.7;;;;;;;9.38;46.79297;95214.47;;;;
2020/04/23 00:20:12;;;;;;;6.900001;4.7;;;;;;;9.38;46.79297;95214.47;;;;
2020/04/23 00:21:13;;;;;;;5.55;5.05;;;;;;;9.34;46.86328;95211.52;;;;
2020/04/23 00:22:13;;;;;;;5.55;5.05;;;;;;;9.34;46.86328;95211.52;;;;
2020/04/23 00:23:14;;;;;;;7.249999;5;;;;;;;9.3;46.94531;95216.54;;;;
2020/04/23 00:24:14;;;;;;;7.249999;5;;;;;;;9.3;46.94531;95216.54;;;;
2020/04/23 00:25:15;;;;;;;7.249999;5;;;;;;;9.3;46.94531;95216.54;;;;
2020/04/23 00:26:15;;;;;;;6.4;5.099999;;;;;;;9.26;47.02734;95214;;;;
2020/04/23 00:27:16;;;;;;;6.4;5.099999;;;;;;;9.26;47.02734;95214;;;;
2020/04/23 00:28:16;;;;;;;6.4;5.099999;;;;;;;9.26;47.02734;95214;;;;
2020/04/23 00:29:16;;;;;;;7.3;4.8;;;;;;;9.23;47.13184;95211.77;;;;
2020/04/23 00:30:17;;;;;;;7.3;4.8;;;;;;;9.23;47.13184;95211.77;;;;
2020/04/23 00:31:17;;;;;;;7.050001;5.15;;;;;;;9.19;47.30859;95209.78;;;;
2020/04/23 00:32:18;;;;;;;7.050001;5.15;;;;;;;9.19;47.30859;95209.78;;;;
2020/04/23 00:33:18;;;;;;;7.050001;5.15;;;;;;;9.19;47.30859;95209.78;;;;
2020/04/23 00:34:19;;;;;;;7.2;4.900001;;;;;;;9.14;47.37988;95202.37;;;;
2020/04/23 00:35:19;;;;;;;7.2;4.900001;;;;;;;9.14;47.37988;95202.37;;;;
2020/04/23 00:36:20;;;;;;;6.25;5.05;;;;;;;9.11;47.50391;95204.28;;;;
2020/04/23 00:37:20;;;;;;;6.25;5.05;;;;;;;9.11;47.50391;95204.28;;;;
2020/04/23 00:38:20;;;;;;;6.25;5.05;;;;;;;9.11;47.50391;95204.28;;;;
2020/04/23 00:39:21;;;;;;;6.85;5.1;;;;;;;9.06;47.66113;95207.69;;;;
2020/04/23 00:40:21;;;;;;;6.85;5.1;;;;;;;9.06;47.66113;95207.69;;;;
2020/04/23 00:41:22;;;;;;;6.85;5.1;;;;;;;9.06;47.66113;95207.69;;;;
2020/04/23 00:42:22;;;;;;;6.65;5.099999;;;;;;;9.02;47.78613;95206.48;;;;
2020/04/23 00:43:23;;;;;;;6.65;5.099999;;;;;;;9.02;47.78613;95206.48;;;;
2020/04/23 00:44:23;;;;;;;6.1;5.05;;;;;;;8.98;47.86719;95209.33;;;;
2020/04/23 00:45:24;;;;;;;6.1;5.05;;;;;;;8.98;47.86719;95209.33;;;;
2020/04/23 00:46:24;;;;;;;6.1;5.05;;;;;;;8.98;47.86719;95209.33;;;;
2020/04/23 00:47:25;;;;;;;9.15;5.05;;;;;;;8.94;48.07715;95210.44;;;;
2020/04/23 00:48:25;;;;;;;9.15;5.05;;;;;;;8.94;48.07715;95210.44;;;;
2020/04/23 00:49:26;;;;;;;9.15;5.05;;;;;;;8.94;48.07715;95210.44;;;;
2020/04/23 00:50:42;;;;;;;6.900001;5.05;;;;;;;8.89;48.2334;95200.75;;;;
2020/04/23 00:51:42;;;;;;;6.900001;5.05;;;;;;;8.89;48.2334;95200.75;;;;
2020/04/23 00:52:43;;;;;;;5.35;4.849999;;;;;;;8.86;48.33789;95199.45;;;;
2020/04/23 00:53:43;;;;;;;5.35;4.849999;;;;;;;8.86;48.33789;95199.45;;;;
2020/04/23 00:54:44;;;;;;;5.35;4.849999;;;;;;;8.86;48.33789;95199.45;;;;
2020/04/23 00:55:44;;;;;;;5.9;5.05;;;;;;;8.82;48.53613;95208.61;;;;
2020/04/23 00:56:45;;;;;;;5.9;5.05;;;;;;;8.82;48.53613;95208.61;;;;
2020/04/23 00:57:45;;;;;;;5.9;5.05;;;;;;;8.82;48.53613;95208.61;;;;
2020/04/23 00:58:45;;;;;;;5.9;5.05;;;;;;;8.82;48.53613;95208.61;;;;
2020/04/23 00:59:46;;;;;;;5.9;5.05;;;;;;;8.82;48.53613;95208.61;;;;
2020/04/23 01:00:46;;;;;;;5.9;5.05;;;;;;;8.82;48.53613;95208.61;;;;
2020/04/23 01:01:47;;;;;;;5.9;5.05;;;;;;;8.82;48.53613;95208.61;;;;
2020/04/23 01:02:47;;;;;;;5.9;5.05;;;;;;;8.82;48.53613;95208.61;;;;
2020/04/23 01:03:48;;;;;;;5.9;5.05;;;;;;;8.82;48.53613;95208.61;;;;
2020/04/23 01:04:48;;;;;;;5.9;5.05;;;;;;;8.82;48.53613;95208.61;;;;
2020/04/23 01:05:49;;;;;;;8.349998;5.299999;;;;;;;8.36;47.7334;95210.12;;;;
2020/04/23 01:06:49;;;;;;;8.349998;5.299999;;;;;;;8.36;47.7334;95210.12;;;;
2020/04/23 01:07:50;;;;;;;8.349998;5.299999;;;;;;;8.36;47.7334;95210.12;;;;
2020/04/23 01:08:50;;;;;;;5.45;4.85;;;;;;;8.31;48.22168;95213.59;;;;
2020/04/23 01:09:51;;;;;;;5.45;4.85;;;;;;;8.31;48.22168;95213.59;;;;
2020/04/23 01:10:51;;;;;;;8.499998;5.3;;;;;;;8.33;48.4707;95215.54;;;;
2020/04/23 01:11:51;;;;;;;8.499998;5.3;;;;;;;8.33;48.4707;95215.54;;;;
2020/04/23 01:12:52;;;;;;;8.499998;5.3;;;;;;;8.33;48.4707;95215.54;;;;
2020/04/23 01:13:52;;;;;;;7.600001;5.5;;;;;;;8.34;48.75195;95215.73;;;;
2020/04/23 01:14:53;;;;;;;7.600001;5.5;;;;;;;8.34;48.75195;95215.73;;;;
2020/04/23 01:15:53;;;;;;;7.600001;5.5;;;;;;;8.34;48.75195;95215.73;;;;
2020/04/23 01:16:54;;;;;;;5.6;5.05;;;;;;;8.36;48.91406;95220.46;;;;
2020/04/23 01:17:54;;;;;;;5.6;5.05;;;;;;;8.36;48.91406;95220.46;;;;
2020/04/23 01:18:55;;;;;;;5.7;5.199999;;;;;;;8.36;49.23535;95220.46;;;;
2020/04/23 01:19:55;;;;;;;5.7;5.199999;;;;;;;8.36;49.23535;95220.46;;;;
2020/04/23 01:20:56;;;;;;;5.7;5.199999;;;;;;;8.36;49.23535;95220.46;;;;
2020/04/23 01:21:56;;;;;;;5.7;5.199999;;;;;;;8.36;49.23535;95220.46;;;;
2020/04/23 01:22:56;;;;;;;5.7;5.199999;;;;;;;8.36;49.23535;95220.46;;;;
2020/04/23 01:23:57;;;;;;;5.7;5.199999;;;;;;;8.36;49.23535;95220.46;;;;
2020/04/23 01:24:58;;;;;;;5.7;5.199999;;;;;;;8.36;49.23535;95220.46;;;;
2020/04/23 01:25:58;;;;;;;5.7;5.199999;;;;;;;8.36;49.23535;95220.46;;;;
2020/04/23 01:26:59;;;;;;;5.7;5.199999;;;;;;;8.36;49.23535;95220.46;;;;
2020/04/23 01:27:59;;;;;;;5.7;5.199999;;;;;;;8.36;49.23535;95220.46;;;;
2020/04/23 01:29:00;;;;;;;5.7;5.199999;;;;;;;8.36;49.23535;95220.46;;;;
2020/04/23 01:30:00;;;;;;;6.150001;4.55;;;;;;;7.95;48.39746;95215.14;;;;
2020/04/23 01:31:01;;;;;;;6.150001;4.55;;;;;;;7.95;48.39746;95215.14;;;;
2020/04/23 01:32:01;;;;;;;6.150001;4.55;;;;;;;7.95;48.39746;95215.14;;;;
2020/04/23 01:33:02;;;;;;;7.050001;5.299999;;;;;;;7.91;48.93848;95210.46;;;;
2020/04/23 01:34:02;;;;;;;7.050001;5.299999;;;;;;;7.91;48.93848;95210.46;;;;
2020/04/23 01:35:03;;;;;;;5.649999;4.8;;;;;;;7.92;49.43164;95206.28;;;;
2020/04/23 01:36:03;;;;;;;5.649999;4.8;;;;;;;7.92;49.43164;95206.28;;;;
2020/04/23 01:37:04;;;;;;;5.649999;4.8;;;;;;;7.92;49.43164;95206.28;;;;
2020/04/23 01:38:04;;;;;;;7.5;4.95;;;;;;;7.93;49.78711;95207.95;;;;
2020/04/23 01:39:05;;;;;;;7.5;4.95;;;;;;;7.93;49.78711;95207.95;;;;
2020/04/23 01:40:12;;;;;;;7.5;4.95;;;;;;;7.93;49.78711;95207.95;;;;
2020/04/23 01:41:12;;;;;;;7.5;4.95;;;;;;;7.93;49.78711;95207.95;;;;
2020/04/23 01:42:13;;;;;;;7.5;4.95;;;;;;;7.93;49.78711;95207.95;;;;
2020/04/23 01:43:13;;;;;;;7.5;4.95;;;;;;;7.93;49.78711;95207.95;;;;
2020/04/23 01:44:13;;;;;;;7.5;4.95;;;;;;;7.93;49.78711;95207.95;;;;
2020/04/23 01:45:14;;;;;;;7.5;4.95;;;;;;;7.93;49.78711;95207.95;;;;
2020/04/23 01:46:14;;;;;;;7.5;4.95;;;;;;;7.93;49.78711;95207.95;;;;
2020/04/23 01:47:15;;;;;;;7.5;4.95;;;;;;;7.93;49.78711;95207.95;;;;
2020/04/23 01:48:15;;;;;;;5.55;4.7;;;;;;;7.47;49.03711;95214.22;;;;
2020/04/23 01:49:16;;;;;;;5.55;4.7;;;;;;;7.47;49.03711;95214.22;;;;
2020/04/23 01:50:48;;;;;;;5.55;4.7;;;;;;;7.47;49.03711;95214.22;;;;
2020/04/23 01:57:05;;;;;;;6.050001;5.25;;;;;;;7.43;50.74609;95220.17;;;;
2020/04/23 01:58:14;;;;;;;6.050001;5.25;;;;;;;7.43;50.74609;95220.17;;;;
2020/04/23 01:59:21;;;;;;;7;5.6;;;;;;;7.42;51.10742;95215.81;;;;
2020/04/23 02:05:40;;;;;;;6.05;5.45;;;;;;;7.39;51.50098;95218.02;;;;
2020/04/23 02:06:46;;;;;;;6.05;5.45;;;;;;;7.39;51.50098;95218.02;;;;
2020/04/23 02:08:01;;;;;;;6.05;5.45;;;;;;;7.39;51.50098;95218.02;;;;
2020/04/23 02:09:24;;;;;;;6.05;5.45;;;;;;;7.39;51.50098;95218.02;;;;
2020/04/23 02:10:50;;;;;;;6.05;5.45;;;;;;;7.39;51.50098;95218.02;;;;
2020/04/23 02:12:01;;;;;;;6.200001;5.15;;;;;;;6.87;50.5625;95221.83;;;;
2020/04/23 02:13:12;;;;;;;6.200001;5.15;;;;;;;6.87;50.5625;95221.83;;;;
2020/04/23 02:14:19;;;;;;;6.200001;5.15;;;;;;;6.87;50.5625;95221.83;;;;
2020/04/23 02:15:28;;;;;;;6.05;5.149999;;;;;;;6.81;51.1543;95224.56;;;;
2020/04/23 02:16:57;;;;;;;6.05;5.149999;;;;;;;6.81;51.1543;95224.56;;;;
2020/04/23 02:18:06;;;;;;;6.05;5.149999;;;;;;;6.81;51.1543;95224.56;;;;
2020/04/23 02:20:20;;;;;;;6.05;5.149999;;;;;;;6.81;51.1543;95224.56;;;;
2020/04/23 02:21:29;;;;;;;6.05;5.149999;;;;;;;6.81;51.1543;95224.56;;;;
2020/04/23 02:22:42;;;;;;;6.05;5.149999;;;;;;;6.81;51.1543;95224.56;;;;
2020/04/23 02:24:55;;;;;;;6.05;5.149999;;;;;;;6.81;51.1543;95224.56;;;;
2020/04/23 02:26:04;;;;;;;9.2;4.75;;;;;;;6.4;50.67871;95233.42;;;;
2020/04/23 02:32:22;;;;;;;6.900001;5.199999;;;;;;;6.37;51.96582;95235.16;;;;
2020/04/23 02:33:31;;;;;;;8.149999;5.8;;;;;;;6.38;52.74512;95230.63;;;;
2020/04/23 02:55:43;;;;;;;8.299998;5.5;;;;;;;5.88;52.59961;95236.6;;;;
2020/04/23 02:56:55;;;;;;;8.299998;5.5;;;;;;;5.88;52.59961;95236.6;;;;
2020/04/23 02:58:04;;;;;;;5.2;4.600001;;;;;;;5.52;52.17188;95241.15;;;;
2020/04/23 02:59:28;;;;;;;5.2;4.600001;;;;;;;5.52;52.17188;95241.15;;;;
2020/04/23 03:05:41;;;;;;;6.900001;5;;;;;;;5.49;52.80762;95243.3;;;;
2020/04/23 03:06:42;;;;;;;6.900001;5;;;;;;;5.49;52.80762;95243.3;;;;
2020/04/23 03:07:42;;;;;;;6.900001;5;;;;;;;5.49;52.80762;95243.3;;;;
2020/04/23 03:08:43;;;;;;;6.900001;5;;;;;;;5.49;52.80762;95243.3;;;;
2020/04/23 03:09:43;;;;;;;6.900001;5;;;;;;;5.49;52.80762;95243.3;;;;
2020/04/23 03:10:43;;;;;;;7.7;5.099999;;;;;;;5.19;52.35547;95264.37;;;;
2020/04/23 03:11:44;;;;;;;7.7;5.099999;;;;;;;5.19;52.35547;95264.37;;;;
2020/04/23 03:12:44;;;;;;;7.7;5.099999;;;;;;;5.19;52.35547;95264.37;;;;
2020/04/23 03:13:45;;;;;;;6.849999;5.45;;;;;;;5.17;53.2041;95258.81;;;;
2020/04/23 03:14:45;;;;;;;6.849999;5.45;;;;;;;5.17;53.2041;95258.81;;;;
2020/04/23 03:15:46;;;;;;;6.849999;5.45;;;;;;;5.17;53.2041;95258.81;;;;
2020/04/23 03:16:46;;;;;;;6.849999;5.45;;;;;;;5.17;53.2041;95258.81;;;;
2020/04/23 03:17:47;;;;;;;6.849999;5.45;;;;;;;5.17;53.2041;95258.81;;;;
2020/04/23 03:18:47;;;;;;;6.849999;5.45;;;;;;;5.17;53.2041;95258.81;;;;
2020/04/23 03:19:48;;;;;;;6.849999;5.45;;;;;;;5.17;53.2041;95258.81;;;;
2020/04/23 03:20:48;;;;;;;6.849999;5.45;;;;;;;5.17;53.2041;95258.81;;;;
2020/04/23 03:21:49;;;;;;;6.849999;5.45;;;;;;;5.17;53.2041;95258.81;;;;
2020/04/23 03:22:49;;;;;;;6.849999;5.45;;;;;;;5.17;53.2041;95258.81;;;;
2020/04/23 03:23:49;;;;;;;6.4;4.9;;;;;;;4.9;52.74512;95267.38;;;;
2020/04/23 03:24:50;;;;;;;6.4;4.9;;;;;;;4.9;52.74512;95267.38;;;;
2020/04/23 03:25:50;;;;;;;6.4;4.9;;;;;;;4.9;52.74512;95267.38;;;;
2020/04/23 03:26:51;;;;;;;8.049999;5.849999;;;;;;;4.88;53.60449;95265.33;;;;
2020/04/23 03:27:51;;;;;;;8.049999;5.849999;;;;;;;4.88;53.60449;95265.33;;;;
2020/04/23 03:28:52;;;;;;;8.049999;5.849999;;;;;;;4.88;53.60449;95265.33;;;;
2020/04/23 03:29:52;;;;;;;8.049999;5.849999;;;;;;;4.88;53.60449;95265.33;;;;
2020/04/23 03:30:53;;;;;;;8.049999;5.849999;;;;;;;4.88;53.60449;95265.33;;;;
2020/04/23 03:31:53;;;;;;;8.049999;5.849999;;;;;;;4.88;53.60449;95265.33;;;;
2020/04/23 03:32:54;;;;;;;8.049999;5.849999;;;;;;;4.88;53.60449;95265.33;;;;
2020/04/23 03:33:54;;;;;;;8.049999;5.849999;;;;;;;4.88;53.60449;95265.33;;;;
2020/04/23 03:34:54;;;;;;;8.049999;5.849999;;;;;;;4.88;53.60449;95265.33;;;;
2020/04/23 03:35:55;;;;;;;8.049999;5.849999;;;;;;;4.88;53.60449;95265.33;;;;
2020/04/23 03:36:55;;;;;;;7.050001;5.4;;;;;;;4.63;53.23438;95264.64;;;;
2020/04/23 03:37:56;;;;;;;7.050001;5.4;;;;;;;4.63;53.23438;95264.64;;;;
2020/04/23 03:38:56;;;;;;;7.050001;5.4;;;;;;;4.63;53.23438;95264.64;;;;
2020/04/23 03:39:57;;;;;;;9.6;5.750001;;;;;;;4.63;54.00781;95265.14;;;;
2020/04/23 03:40:57;;;;;;;9.6;5.750001;;;;;;;4.63;54.00781;95265.14;;;;
2020/04/23 03:41:58;;;;;;;9.6;5.750001;;;;;;;4.63;54.00781;95265.14;;;;
2020/04/23 03:42:58;;;;;;;9.6;5.750001;;;;;;;4.63;54.00781;95265.14;;;;
2020/04/23 03:43:59;;;;;;;9.6;5.750001;;;;;;;4.63;54.00781;95265.14;;;;
2020/04/23 03:45:01;;;;;;;9.6;5.750001;;;;;;;4.63;54.00781;95265.14;;;;
2020/04/23 03:46:02;;;;;;;9.6;5.750001;;;;;;;4.63;54.00781;95265.14;;;;
2020/04/23 03:47:02;;;;;;;9.6;5.750001;;;;;;;4.63;54.00781;95265.14;;;;
2020/04/23 03:48:03;;;;;;;9.6;5.750001;;;;;;;4.63;54.00781;95265.14;;;;
2020/04/23 03:49:03;;;;;;;9.6;5.750001;;;;;;;4.63;54.00781;95265.14;;;;
2020/04/23 03:50:04;;;;;;;8.200001;5.300001;;;;;;;4.43;53.64355;95273.58;;;;
2020/04/23 03:51:04;;;;;;;8.200001;5.300001;;;;;;;4.43;53.64355;95273.58;;;;
2020/04/23 03:52:05;;;;;;;8.200001;5.300001;;;;;;;4.43;53.64355;95273.58;;;;
2020/04/23 03:53:05;;;;;;;6.699999;6;;;;;;;4.43;54.48242;95270.9;;;;
2020/04/23 03:54:06;;;;;;;6.699999;6;;;;;;;4.43;54.48242;95270.9;;;;
2020/04/23 03:55:06;;;;;;;6.699999;6;;;;;;;4.43;54.48242;95270.9;;;;
2020/04/23 03:56:06;;;;;;;6.699999;6;;;;;;;4.43;54.48242;95270.9;;;;
2020/04/23 03:57:07;;;;;;;6.699999;6;;;;;;;4.43;54.48242;95270.9;;;;
2020/04/23 03:58:08;;;;;;;6.699999;6;;;;;;;4.43;54.48242;95270.9;;;;
2020/04/23 03:59:08;;;;;;;6.699999;6;;;;;;;4.43;54.48242;95270.9;;;;
2020/04/23 04:00:09;;;;;;;6.699999;6;;;;;;;4.43;54.48242;95270.9;;;;
2020/04/23 04:01:09;;;;;;;6.699999;6;;;;;;;4.43;54.48242;95270.9;;;;
2020/04/23 04:02:09;;;;;;;6.699999;6;;;;;;;4.43;54.48242;95270.9;;;;
2020/04/23 04:03:10;;;;;;;6.699999;6;;;;;;;4.43;54.48242;95270.9;;;;
2020/04/23 04:04:10;;;;;;;8.5;5.55;;;;;;;4.21;54.0625;95287.97;;;;
2020/04/23 04:05:11;;;;;;;8.5;5.55;;;;;;;4.21;54.0625;95287.97;;;;
2020/04/23 04:06:12;;;;;;;8.75;6.1;;;;;;;4.23;54.90137;95282;;;;
2020/04/23 04:07:12;;;;;;;8.75;6.1;;;;;;;4.23;54.90137;95282;;;;
2020/04/23 04:08:13;;;;;;;8.75;6.1;;;;;;;4.23;54.90137;95282;;;;
2020/04/23 04:09:13;;;;;;;8.75;6.1;;;;;;;4.23;54.90137;95282;;;;
2020/04/23 04:10:14;;;;;;;8.75;6.1;;;;;;;4.23;54.90137;95282;;;;
2020/04/23 04:11:14;;;;;;;8.75;6.1;;;;;;;4.23;54.90137;95282;;;;
2020/04/23 04:12:15;;;;;;;8.75;6.1;;;;;;;4.23;54.90137;95282;;;;
2020/04/23 04:13:15;;;;;;;8.75;6.1;;;;;;;4.23;54.90137;95282;;;;
2020/04/23 04:14:16;;;;;;;8.75;6.1;;;;;;;4.23;54.90137;95282;;;;
2020/04/23 04:15:16;;;;;;;8.75;6.1;;;;;;;4.23;54.90137;95282;;;;
2020/04/23 04:16:16;;;;;;;8.75;6.1;;;;;;;4.23;54.90137;95282;;;;
2020/04/23 04:17:17;;;;;;;8.5;5.699998;;;;;;;4.06;54.50977;95293.53;;;;
2020/04/23 04:18:17;;;;;;;8.5;5.699998;;;;;;;4.06;54.50977;95293.53;;;;
2020/04/23 04:19:18;;;;;;;12.35;6.4;;;;;;;4.07;55.17773;95295.17;;;;
2020/04/23 04:20:18;;;;;;;12.35;6.4;;;;;;;4.07;55.17773;95295.17;;;;
2020/04/23 04:21:18;;;;;;;12.35;6.4;;;;;;;4.07;55.17773;95295.17;;;;
2020/04/23 04:22:19;;;;;;;12.35;6.4;;;;;;;4.07;55.17773;95295.17;;;;
2020/04/23 04:23:19;;;;;;;12.35;6.4;;;;;;;4.07;55.17773;95295.17;;;;
2020/04/23 04:24:20;;;;;;;12.35;6.4;;;;;;;4.07;55.17773;95295.17;;;;
2020/04/23 04:25:20;;;;;;;12.35;6.4;;;;;;;4.07;55.17773;95295.17;;;;
2020/04/23 04:26:21;;;;;;;12.35;6.4;;;;;;;4.07;55.17773;95295.17;;;;
2020/04/23 04:27:21;;;;;;;12.35;6.4;;;;;;;4.07;55.17773;95295.17;;;;
2020/04/23 04:28:22;;;;;;;12.35;6.4;;;;;;;4.07;55.17773;95295.17;;;;
2020/04/23 04:29:22;;;;;;;12.35;6.4;;;;;;;4.07;55.17773;95295.17;;;;
2020/04/23 04:30:23;;;;;;;7.799999;5.749999;;;;;;;3.95;54.62109;95311.94;;;;
2020/04/23 04:31:23;;;;;;;7.799999;5.749999;;;;;;;3.95;54.62109;95311.94;;;;
2020/04/23 04:32:24;;;;;;;9.900001;6.7;;;;;;;3.97;55.32422;95313.4;;;;
2020/04/23 04:33:24;;;;;;;9.900001;6.7;;;;;;;3.97;55.32422;95313.4;;;;
2020/04/23 04:34:25;;;;;;;9.900001;6.7;;;;;;;3.97;55.32422;95313.4;;;;
2020/04/23 04:35:25;;;;;;;9.900001;6.7;;;;;;;3.97;55.32422;95313.4;;;;
2020/04/23 04:36:25;;;;;;;9.900001;6.7;;;;;;;3.97;55.32422;95313.4;;;;
2020/04/23 04:37:26;;;;;;;9.900001;6.7;;;;;;;3.97;55.32422;95313.4;;;;
2020/04/23 04:38:26;;;;;;;9.900001;6.7;;;;;;;3.97;55.32422;95313.4;;;;
2020/04/23 04:39:27;;;;;;;9.900001;6.7;;;;;;;3.97;55.32422;95313.4;;;;
2020/04/23 04:40:27;;;;;;;9.900001;6.7;;;;;;;3.97;55.32422;95313.4;;;;
2020/04/23 04:41:28;;;;;;;9.900001;6.7;;;;;;;3.97;55.32422;95313.4;;;;
2020/04/23 04:42:28;;;;;;;9.900001;6.7;;;;;;;3.97;55.32422;95313.4;;;;
2020/04/23 04:43:29;;;;;;;8.750001;6.1;;;;;;;3.87;54.92969;95321.83;;;;
2020/04/23 04:44:29;;;;;;;8.750001;6.1;;;;;;;3.87;54.92969;95321.83;;;;
2020/04/23 04:45:30;;;;;;;8.750001;6.1;;;;;;;3.87;54.92969;95321.83;;;;
2020/04/23 04:46:30;;;;;;;8.45;6.349999;;;;;;;3.9;55.52734;95327.61;;;;
2020/04/23 04:47:31;;;;;;;8.45;6.349999;;;;;;;3.9;55.52734;95327.61;;;;
2020/04/23 04:48:31;;;;;;;8.45;6.349999;;;;;;;3.9;55.52734;95327.61;;;;
2020/04/23 04:49:31;;;;;;;8.45;6.349999;;;;;;;3.9;55.52734;95327.61;;;;
2020/04/23 04:50:32;;;;;;;8.45;6.349999;;;;;;;3.9;55.52734;95327.61;;;;
2020/04/23 04:51:32;;;;;;;8.45;6.349999;;;;;;;3.9;55.52734;95327.61;;;;
2020/04/23 04:52:33;;;;;;;8.45;6.349999;;;;;;;3.9;55.52734;95327.61;;;;
2020/04/23 04:53:33;;;;;;;8.45;6.349999;;;;;;;3.9;55.52734;95327.61;;;;
2020/04/23 04:54:34;;;;;;;8.45;6.349999;;;;;;;3.9;55.52734;95327.61;;;;
2020/04/23 04:55:34;;;;;;;8.45;6.349999;;;;;;;3.9;55.52734;95327.61;;;;
2020/04/23 04:56:35;;;;;;;8.600001;6.099999;;;;;;;3.88;55.05859;95332.35;;;;
2020/04/23 04:57:35;;;;;;;8.600001;6.099999;;;;;;;3.88;55.05859;95332.35;;;;
2020/04/23 04:58:36;;;;;;;8.600001;6.099999;;;;;;;3.88;55.05859;95332.35;;;;
2020/04/23 04:59:36;;;;;;;8.600001;6.099999;;;;;;;3.88;55.05859;95332.35;;;;
2020/04/23 05:00:37;;;;;;;8.600001;6.099999;;;;;;;3.88;55.05859;95332.35;;;;
2020/04/23 05:01:37;;;;;;;8.600001;6.099999;;;;;;;3.88;55.05859;95332.35;;;;
2020/04/23 05:02:38;;;;;;;8.600001;6.099999;;;;;;;3.88;55.05859;95332.35;;;;
2020/04/23 05:03:38;;;;;;;8.600001;6.099999;;;;;;;3.88;55.05859;95332.35;;;;
2020/04/23 05:04:39;;;;;;;8.600001;6.099999;;;;;;;3.88;55.05859;95332.35;;;;
2020/04/23 05:05:39;;;;;;;8.600001;6.099999;;;;;;;3.88;55.05859;95332.35;;;;
2020/04/23 05:06:39;;;;;;;8.600001;6.099999;;;;;;;3.88;55.05859;95332.35;;;;
2020/04/23 05:07:40;;;;;;;8.4;6;;;;;;;4.04;54.50684;95338.73;;;;
2020/04/23 05:08:40;;;;;;;8.4;6;;;;;;;4.04;54.50684;95338.73;;;;
2020/04/23 05:09:41;;;;;;;8.4;6;;;;;;;4.04;54.50684;95338.73;;;;
2020/04/23 05:10:41;;;;;;;8.4;6;;;;;;;4.04;54.50684;95338.73;;;;
2020/04/23 05:11:42;;;;;;;8.4;6;;;;;;;4.04;54.50684;95338.73;;;;
2020/04/23 05:12:42;;;;;;;8.4;6;;;;;;;4.04;54.50684;95338.73;;;;
2020/04/23 05:13:43;;;;;;;8.4;6;;;;;;;4.04;54.50684;95338.73;;;;
2020/04/23 05:14:43;;;;;;;8.4;6;;;;;;;4.04;54.50684;95338.73;;;;
2020/04/23 05:15:43;;;;;;;8.4;6;;;;;;;4.04;54.50684;95338.73;;;;
2020/04/23 05:16:44;;;;;;;8.4;6;;;;;;;4.04;54.50684;95338.73;;;;
2020/04/23 05:17:44;;;;;;;8.3;6.2;;;;;;;4.28;54.03809;95345.48;;;;
2020/04/23 05:18:45;;;;;;;8.3;6.2;;;;;;;4.28;54.03809;95345.48;;;;
2020/04/23 05:19:45;;;;;;;8.3;6.2;;;;;;;4.28;54.03809;95345.48;;;;
2020/04/23 05:20:46;;;;;;;9.750001;7.100001;;;;;;;4.43;54.72559;95346.17;;;;
2020/04/23 05:21:46;;;;;;;9.750001;7.100001;;;;;;;4.43;54.72559;95346.17;;;;
2020/04/23 05:22:47;;;;;;;9.750001;7.100001;;;;;;;4.43;54.72559;95346.17;;;;
2020/04/23 05:23:47;;;;;;;9.750001;7.100001;;;;;;;4.43;54.72559;95346.17;;;;
2020/04/23 05:24:47;;;;;;;9.750001;7.100001;;;;;;;4.43;54.72559;95346.17;;;;
2020/04/23 05:25:48;;;;;;;9.750001;7.100001;;;;;;;4.43;54.72559;95346.17;;;;
2020/04/23 05:26:48;;;;;;;9.750001;7.100001;;;;;;;4.43;54.72559;95346.17;;;;
2020/04/23 05:27:49;;;;;;;9.750001;7.100001;;;;;;;4.43;54.72559;95346.17;;;;
2020/04/23 05:28:49;;;;;;;9.750001;7.100001;;;;;;;4.43;54.72559;95346.17;;;;
2020/04/23 05:29:50;;;;;;;9.750001;7.100001;;;;;;;4.43;54.72559;95346.17;;;;
2020/04/23 05:30:50;;;;;;;9.15;6.599999;;;;;;;4.91;54.08594;95351.45;;;;
2020/04/23 05:31:51;;;;;;;9.15;6.599999;;;;;;;4.91;54.08594;95351.45;;;;
2020/04/23 05:32:51;;;;;;;9.15;6.599999;;;;;;;4.91;54.08594;95351.45;;;;
2020/04/23 05:33:52;;;;;;;11.3;7.35;;;;;;;5.11;54.7373;95354.22;;;;
2020/04/23 05:34:52;;;;;;;11.3;7.35;;;;;;;5.11;54.7373;95354.22;;;;
2020/04/23 05:35:52;;;;;;;11.3;7.35;;;;;;;5.11;54.7373;95354.22;;;;
2020/04/23 05:36:53;;;;;;;11.3;7.35;;;;;;;5.11;54.7373;95354.22;;;;
2020/04/23 05:37:53;;;;;;;11.3;7.35;;;;;;;5.11;54.7373;95354.22;;;;
2020/04/23 05:38:54;;;;;;;11.3;7.35;;;;;;;5.11;54.7373;95354.22;;;;
2020/04/23 05:39:54;;;;;;;11.3;7.35;;;;;;;5.11;54.7373;95354.22;;;;
2020/04/23 05:40:55;;;;;;;11.3;7.35;;;;;;;5.11;54.7373;95354.22;;;;
2020/04/23 05:41:55;;;;;;;11.3;7.35;;;;;;;5.11;54.7373;95354.22;;;;
2020/04/23 05:42:56;;;;;;;11.3;7.35;;;;;;;5.11;54.7373;95354.22;;;;
2020/04/23 05:43:56;;;;;;;11.3;7.35;;;;;;;5.11;54.7373;95354.22;;;;
2020/04/23 05:44:57;;;;;;;11.4;6.299999;;;;;;;5.74;53.90234;95358.7;;;;
2020/04/23 05:45:57;;;;;;;11.4;6.299999;;;;;;;5.74;53.90234;95358.7;;;;
2020/04/23 05:48:07;;;;;;;9.549999;6.65;;;;;;;5.96;54.35645;95352.12;;;;
2020/04/23 05:49:16;;;;;;;9.549999;6.65;;;;;;;5.96;54.35645;95352.12;;;;
2020/04/23 05:55:39;;;;;;;9.549999;6.65;;;;;;;5.96;54.35645;95352.12;;;;
2020/04/23 06:02:32;;;;;;;8.85;6.249999;;;;;;;7.07;53.81348;95349.65;;;;
2020/04/23 06:03:44;;;;;;;8.85;6.249999;;;;;;;7.07;53.81348;95349.65;;;;
2020/04/23 06:06:00;;;;;;;8.85;6.249999;;;;;;;7.07;53.81348;95349.65;;;;
2020/04/23 06:08:16;;;;;;;8.85;6.249999;;;;;;;7.07;53.81348;95349.65;;;;
2020/04/23 06:09:24;;;;;;;8.85;6.249999;;;;;;;7.07;53.81348;95349.65;;;;
2020/04/23 06:10:31;;;;;;;8.85;6.249999;;;;;;;7.07;53.81348;95349.65;;;;
2020/04/23 06:11:40;;;;;;;8.699999;6.349999;;;;;;;7.92;52.64551;95342.88;;;;
2020/04/23 06:18:06;;;;;;;7.7;6.4;;;;;;;8.18;52.6543;95345.47;;;;
2020/04/23 06:19:14;;;;;;;7.7;6.4;;;;;;;8.18;52.6543;95345.47;;;;
2020/04/23 06:20:25;;;;;;;7.7;6.4;;;;;;;8.18;52.6543;95345.47;;;;
2020/04/23 06:21:33;;;;;;;7.7;6.4;;;;;;;8.18;52.6543;95345.47;;;;
2020/04/23 06:22:57;;;;;;;7.7;6.4;;;;;;;8.18;52.6543;95345.47;;;;
2020/04/23 06:25:05;;;;;;;7.799999;6.6;;;;;;;8.98;51.49707;95356.09;;;;
2020/04/23 06:26:13;;;;;;;7.799999;6.6;;;;;;;8.98;51.49707;95356.09;;;;
2020/04/23 06:27:23;;;;;;;8.8;6.75;;;;;;;9.28;51.16699;95349.3;;;;
2020/04/23 06:33:45;;;;;;;7.85;6.450001;;;;;;;10.31;49.48926;95341.44;;;;
2020/04/23 06:34:53;;;;;;;8.1;6.85;;;;;;;10.91;48.5332;95351.37;;;;
2020/04/23 06:36:07;;;;;;;8.1;6.85;;;;;;;10.91;48.5332;95351.37;;;;
2020/04/23 06:42:30;;;;;;;8.8;6.699999;;;;;;;12.13;46.66602;95350.48;;;;
2020/04/23 06:43:45;;;;;;;8.65;6.45;;;;;;;12.69;45.66406;95351.72;;;;
2020/04/23 06:44:51;;;;;;;8.65;6.45;;;;;;;12.69;45.66406;95351.72;;;;
2020/04/23 06:46:00;;;;;;;9.699998;6.750001;;;;;;;13.24;44.62402;95352.29;;;;
2020/04/23 06:47:08;;;;;;;9.699998;6.750001;;;;;;;13.24;44.62402;95352.29;;;;
2020/04/23 06:48:19;;;;;;;9.699998;6.750001;;;;;;;13.24;44.62402;95352.29;;;;
2020/04/23 06:49:29;;;;;;;9.699998;6.750001;;;;;;;13.24;44.62402;95352.29;;;;
2020/04/23 06:50:45;;;;;;;9.699998;6.750001;;;;;;;13.24;44.62402;95352.29;;;;
2020/04/23 06:51:57;;;;;;;7.55;6.75;;;;;;;14.24;42.97266;95339.48;;;;
2020/04/23 06:53:37;;;;;;;7.55;6.75;;;;;;;14.24;42.97266;95339.48;;;;
2020/04/23 06:54:47;;;;;;;8.200001;6.749999;;;;;;;14.62;42.00781;95336.04;;;;
2020/04/23 06:55:58;;;;;;;8.200001;6.749999;;;;;;;14.62;42.00781;95336.04;;;;
2020/04/23 06:57:38;;;;;;;8.750001;6.6;;;;;;;14.96;41.59277;95335.64;;;;
2020/04/23 06:58:52;;;;;;;8.750001;6.6;;;;;;;14.96;41.59277;95335.64;;;;
2020/04/23 07:00:00;;;;;;;7.9;6.4;;;;;;;15.32;41.24414;95338.03;;;;
2020/04/23 07:01:08;;;;;;;7.9;6.4;;;;;;;15.32;41.24414;95338.03;;;;
2020/04/23 07:02:16;;;;;;;8.85;6.95;;;;;;;15.67;40.6543;95341.52;;;;
2020/04/23 07:03:31;;;;;;;8.85;6.95;;;;;;;15.67;40.6543;95341.52;;;;
2020/04/23 07:04:44;;;;;;;7.999999;6.75;;;;;;;15.96;40.1123;95336.7;;;;
2020/04/23 07:05:53;;;;;;;7.999999;6.75;;;;;;;15.96;40.1123;95336.7;;;;
2020/04/23 07:07:00;;;;;;;7.7;6.5;;;;;;;16.2;39.41016;95340.17;;;;
2020/04/23 07:08:06;;;;;;;7.7;6.5;;;;;;;16.2;39.41016;95340.17;;;;
2020/04/23 07:09:46;;;;;;;7.7;6.5;;;;;;;16.2;39.41016;95340.17;;;;
2020/04/23 07:11:57;;;;;;;6.75;6.100001;;;;;;;16.4;38.72754;95339.39;;;;
2020/04/23 07:13:11;;;;;;;9.250001;6.5;;;;;;;16.58;38.22852;95342.03;;;;